Portada
METAR-TAF:

METAR-TAF

Aeropuertos :

Hohenfels, Alemania

latitud: 49-13N, longitud: 011-50E, altitud: 442 m

Observación

El informe se hizo hace 17 minutos, a las 06:31 UTC
Viento calma
Temperatura 12°C
Humedad 94%
Presión 1008 hPa
Visibilidad 10 km o más
Nubes dispersas a una altura de 700 ft
Nubes dispersas a una altura de 1200 ft
Nubes dispersas a una altura de 1900 ft
Cielo nuboso a una altura de 2800 ft
Cielo cubierto a una altura de 3500 ft
lluvia ligera

METAR: ETIH 070631Z AUTO 00000KT 9999 -RA SCT007 SCT012 SCT019 BKN028 OVC035 12/11 A2976 RMK AO2 RAE00DZB00E07RAB07 CIG 026V038 BKN V SCT SLP077 $

Hora: 08:48 (06:48 UTC)


TAF: falta

Observaciones y pronósticos meteorológicos de más de 4000 aeropuertos (mensajes METAR y TAF).

Los puntos amarillos y rojos representan las estaciones disponibles.

Ponga el ratón en el punto deseado para ver el nombre de la estación.

Haga clic para ver las observaciones y los pronósticos meteorológicos.

Para cambiar el mapa : haga clic en los botones verdes con una cruz de color negro para hacer un zoom, en el botón verde con un guión para alejar o en las flechas verdes para mapas adyacentes.


METAR-TAF: